Time;durP1;ratioP1;P1;durP2;ratioP2;P2;SDS_P1;SDS_P2;PMS_P1;PMS_P2;Temp;Humidity;BMP_temperature;BMP_pressure;BME280_temperature;BME280_humidity;BME280_pressure;Samples;Min_cycle;Max_cycle;Signal;HPM_P1;HPM_P2
2023/12/03 00:02:11;;;;;;;28.87;10.97;;;;;;;-0.54;99.35;101841.94;4997605;28;20033;-88
2023/12/03 00:04:36;;;;;;;29.20;11.70;;;;;;;-0.54;99.84;101835.16;4994059;28;20180;-88
2023/12/03 00:07:02;;;;;;;28.37;11.27;;;;;;;-0.52;99.84;101830.06;5015251;28;20235;-88
2023/12/03 00:09:28;;;;;;;26.00;10.67;;;;;;;-0.52;99.77;101828.41;4995832;28;20172;-90
2023/12/03 00:11:53;;;;;;;25.77;11.00;;;;;;;-0.48;99.46;101826.81;4991988;28;20014;-89
2023/12/03 00:14:18;;;;;;;26.30;10.50;;;;;;;-0.47;99.42;101824.31;4988182;28;20026;-89
2023/12/03 00:16:44;;;;;;;26.40;11.17;;;;;;;-0.46;99.88;101823.50;5016108;28;20029;-87
2023/12/03 00:19:09;;;;;;;25.87;11.20;;;;;;;-0.46;100.00;101825.19;5000149;28;20030;-89
2023/12/03 00:21:35;;;;;;;24.73;11.37;;;;;;;-0.44;100.00;101826.13;4989026;28;20026;-88
2023/12/03 00:24:00;;;;;;;25.20;11.00;;;;;;;-0.41;100.00;101830.47;4999187;28;20554;-88
2023/12/03 00:26:26;;;;;;;24.70;10.70;;;;;;;-0.40;99.58;101825.41;4995302;28;20030;-87
2023/12/03 00:28:51;;;;;;;24.73;10.83;;;;;;;-0.37;99.65;101830.63;4993932;28;20038;-88
2023/12/03 00:31:16;;;;;;;25.97;11.53;;;;;;;-0.35;100.00;101829.00;4996377;28;20025;-92
2023/12/03 00:33:42;;;;;;;24.30;11.00;;;;;;;-0.34;100.00;101835.84;5036476;28;20029;-87
2023/12/03 00:36:08;;;;;;;21.83;10.53;;;;;;;-0.31;100.00;101830.84;5004587;28;20389;-88
2023/12/03 00:38:33;;;;;;;25.70;11.27;;;;;;;-0.29;100.00;101837.72;5011493;28;20486;-88
2023/12/03 00:40:58;;;;;;;23.83;10.93;;;;;;;-0.26;99.90;101827.59;4998345;28;20382;-87
2023/12/03 00:43:24;;;;;;;24.30;10.83;;;;;;;-0.26;100.00;101831.00;5010318;28;20498;-87
2023/12/03 00:45:51;;;;;;;22.97;10.53;;;;;;;-0.22;100.00;101837.97;5010125;28;20505;-88
2023/12/03 00:48:17;;;;;;;23.60;10.73;;;;;;;-0.19;100.00;101843.19;5002489;28;20026;-88
2023/12/03 00:50:42;;;;;;;23.70;10.23;;;;;;;-0.18;100.00;101834.72;5006786;28;20388;-88
2023/12/03 00:53:07;;;;;;;24.20;10.20;;;;;;;-0.14;100.00;101837.34;5013356;28;20445;-89
2023/12/03 00:55:33;;;;;;;24.00;10.27;;;;;;;-0.11;100.00;101840.03;4993122;28;20037;-88
2023/12/03 00:57:58;;;;;;;23.27;10.53;;;;;;;-0.11;100.00;101834.91;5008083;28;20030;-88
2023/12/03 01:00:24;;;;;;;22.60;9.67;;;;;;;-0.08;100.00;101838.44;4993395;28;20113;-89
2023/12/03 01:02:49;;;;;;;23.67;10.37;;;;;;;-0.07;100.00;101829.09;5016383;28;20108;-87
2023/12/03 01:05:14;;;;;;;22.30;9.43;;;;;;;-0.03;100.00;101834.34;4992187;28;20112;-88
2023/12/03 01:07:40;;;;;;;22.73;9.80;;;;;;;0.00;100.00;101833.59;4994358;28;20062;-88
2023/12/03 01:10:05;;;;;;;21.93;9.77;;;;;;;0.04;100.00;101837.13;4992692;28;20030;-86
2023/12/03 01:12:31;;;;;;;27.40;10.67;;;;;;;0.06;100.00;101840.59;5012254;28;20390;-86
2023/12/03 01:14:56;;;;;;;21.73;9.90;;;;;;;0.07;100.00;101838.09;5009580;28;20026;-86
2023/12/03 01:17:21;;;;;;;24.77;10.37;;;;;;;0.08;100.00;101834.72;5014186;28;20382;-86
2023/12/03 01:19:46;;;;;;;22.10;9.80;;;;;;;0.12;100.00;101851.91;5013571;28;20470;-86
2023/12/03 01:22:12;;;;;;;23.83;9.63;;;;;;;0.13;100.00;101843.44;4995606;28;20048;-86
2023/12/03 01:24:37;;;;;;;20.83;8.90;;;;;;;0.15;100.00;101843.47;5009049;28;20041;-86
2023/12/03 01:27:04;;;;;;;21.13;9.37;;;;;;;0.17;100.00;101849.50;5016608;28;20037;-86
2023/12/03 01:29:30;;;;;;;19.10;8.83;;;;;;;0.19;100.00;101857.22;4994637;28;20115;-86
2023/12/03 01:31:55;;;;;;;21.90;9.57;;;;;;;0.20;100.00;101854.72;5013859;28;20353;-86
2023/12/03 01:34:20;;;;;;;20.27;9.50;;;;;;;0.21;100.00;101853.03;5012461;28;20358;-85
2023/12/03 01:36:46;;;;;;;20.07;9.47;;;;;;;0.19;100.00;101853.00;5010575;28;20025;-87
2023/12/03 01:39:12;;;;;;;22.67;9.70;;;;;;;0.21;100.00;101855.59;5021164;28;20025;-86
2023/12/03 01:41:38;;;;;;;20.23;9.87;;;;;;;0.21;100.00;101853.91;5012419;28;20034;-86
2023/12/03 01:44:03;;;;;;;20.53;10.37;;;;;;;0.20;100.00;101853.84;5011601;28;20359;-86
2023/12/03 01:46:29;;;;;;;22.00;10.60;;;;;;;0.17;100.00;101858.88;5011448;28;20038;-86
2023/12/03 01:48:55;;;;;;;23.47;10.97;;;;;;;0.16;100.00;101849.47;5012540;28;20033;-86
2023/12/03 01:51:20;;;;;;;20.87;10.70;;;;;;;0.14;100.00;101857.06;5013653;28;20050;-85
2023/12/03 01:53:48;;;;;;;23.47;11.63;;;;;;;0.11;100.00;101849.28;5012663;28;20040;-86
2023/12/03 01:56:14;;;;;;;24.40;11.67;;;;;;;0.06;100.00;101853.41;5006955;28;20331;-86
2023/12/03 01:58:40;;;;;;;23.43;11.87;;;;;;;0.03;100.00;101860.97;5010634;28;20049;-86
2023/12/03 02:01:06;;;;;;;24.80;11.00;;;;;;;0.01;100.00;101868.56;5007356;28;20122;-86
2023/12/03 02:03:31;;;;;;;22.50;11.63;;;;;;;0.02;100.00;101869.47;5010362;28;20033;-86
2023/12/03 02:06:04;;;;;;;22.70;11.30;;;;;;;0.03;100.00;101873.75;4991106;28;20029;-86
2023/12/03 02:08:30;;;;;;;25.73;11.77;;;;;;;0.03;100.00;101872.06;5011798;28;20120;-86
2023/12/03 02:10:56;;;;;;;20.00;10.57;;;;;;;0.05;100.00;101867.88;5010174;28;20495;-85
2023/12/03 02:13:23;;;;;;;22.73;10.90;;;;;;;0.06;100.00;101872.16;4998412;28;20059;-86
2023/12/03 02:15:48;;;;;;;22.20;10.53;;;;;;;0.08;100.00;101877.34;5006034;28;20021;-86
2023/12/03 02:18:14;;;;;;;21.23;10.03;;;;;;;0.11;100.00;101886.00;5020464;28;20025;-86
2023/12/03 02:20:39;;;;;;;21.40;10.83;;;;;;;0.11;100.00;101883.44;5009695;28;20045;-86
2023/12/03 02:23:04;;;;;;;22.27;10.73;;;;;;;0.14;100.00;101885.22;5035463;28;20025;-85
2023/12/03 02:25:30;;;;;;;21.87;10.47;;;;;;;0.16;100.00;101882.72;5024473;28;20092;-86
2023/12/03 02:27:55;;;;;;;21.77;11.03;;;;;;;0.16;100.00;101875.06;5013763;28;20175;-86
2023/12/03 02:30:20;;;;;;;21.80;10.40;;;;;;;0.16;100.00;101882.72;5000768;28;20489;-86
2023/12/03 02:32:47;;;;;;;23.33;11.20;;;;;;;0.14;100.00;101881.00;5006889;28;20112;-86
2023/12/03 02:35:12;;;;;;;21.03;10.47;;;;;;;0.14;100.00;101881.00;5008443;28;20033;-86
2023/12/03 02:37:37;;;;;;;21.40;10.43;;;;;;;0.12;100.00;101877.50;5009038;28;20033;-86
2023/12/03 02:40:04;;;;;;;23.60;10.80;;;;;;;0.10;100.00;101876.56;5009093;28;20497;-86
2023/12/03 02:42:29;;;;;;;22.00;11.30;;;;;;;0.09;100.00;101879.94;5007088;28;20468;-86
2023/12/03 02:44:54;;;;;;;21.50;10.57;;;;;;;0.06;100.00;101877.28;5009820;28;20513;-86
2023/12/03 02:47:20;;;;;;;22.37;11.27;;;;;;;0.04;100.00;101873.81;5016135;28;20548;-86
2023/12/03 02:49:45;;;;;;;26.10;11.53;;;;;;;0.01;100.00;101872.84;5017355;28;20057;-86
2023/12/03 02:52:10;;;;;;;25.20;11.33;;;;;;;-0.01;100.00;101877.91;5009202;28;20053;-86
2023/12/03 02:54:38;;;;;;;24.23;11.90;;;;;;;-0.06;100.00;101875.16;5006340;28;20121;-86
2023/12/03 02:57:05;;;;;;;24.97;11.83;;;;;;;-0.08;100.00;101874.25;5008416;28;20044;-86
2023/12/03 02:59:30;;;;;;;27.50;12.53;;;;;;;-0.10;100.00;101873.34;5011881;28;20022;-86
2023/12/03 03:01:56;;;;;;;24.57;12.63;;;;;;;-0.12;100.00;101874.09;5008118;28;20029;-86
2023/12/03 03:04:21;;;;;;;24.67;12.13;;;;;;;-0.13;100.00;101869.78;5009495;28;20054;-85
2023/12/03 03:06:46;;;;;;;24.57;12.43;;;;;;;-0.16;100.00;101870.56;5011475;28;20022;-86
2023/12/03 03:09:12;;;;;;;26.87;13.83;;;;;;;-0.19;100.00;101870.44;5009257;28;20393;-86
2023/12/03 03:11:37;;;;;;;26.80;12.43;;;;;;;-0.19;100.00;101875.56;5014608;28;20030;-86
2023/12/03 03:14:02;;;;;;;23.63;12.10;;;;;;;-0.20;100.00;101873.81;5007558;28;20083;-86
2023/12/03 03:16:28;;;;;;;25.33;12.53;;;;;;;-0.19;100.00;101873.88;5009163;28;20385;-86
2023/12/03 03:18:54;;;;;;;26.57;12.03;;;;;;;-0.16;100.00;101880.78;4989876;28;20049;-86
2023/12/03 03:21:20;;;;;;;27.57;12.83;;;;;;;-0.14;100.00;101884.28;5009905;28;20028;-85
2023/12/03 03:23:45;;;;;;;26.70;12.13;;;;;;;-0.12;100.00;101879.19;5003265;28;20018;-85
2023/12/03 03:26:10;;;;;;;26.37;12.30;;;;;;;-0.10;100.00;101880.13;5010189;28;20112;-86
2023/12/03 03:28:36;;;;;;;22.27;11.03;;;;;;;-0.08;100.00;101878.50;5010031;28;20437;-86
2023/12/03 03:31:01;;;;;;;24.50;11.63;;;;;;;-0.07;100.00;101875.13;5006761;28;20505;-86
2023/12/03 03:33:26;;;;;;;22.30;11.23;;;;;;;-0.08;100.00;101884.47;5007473;28;20064;-86
2023/12/03 03:35:52;;;;;;;23.73;11.80;;;;;;;-0.09;100.00;101877.66;5009958;28;20025;-86
2023/12/03 03:38:17;;;;;;;24.47;11.00;;;;;;;-0.11;100.00;101884.38;5017134;28;20026;-86
2023/12/03 03:40:42;;;;;;;24.70;11.47;;;;;;;-0.13;100.00;101877.47;5003671;28;20101;-85
2023/12/03 03:43:08;;;;;;;26.03;12.20;;;;;;;-0.16;100.00;101881.66;5022858;28;20061;-86
2023/12/03 03:45:33;;;;;;;24.03;11.63;;;;;;;-0.20;100.00;101877.25;5005598;28;20061;-86
2023/12/03 03:47:58;;;;;;;21.90;11.40;;;;;;;-0.22;100.00;101886.56;4995511;28;20073;-85
2023/12/03 03:50:24;;;;;;;22.97;11.47;;;;;;;-0.22;100.00;101881.44;5015972;28;20358;-86
2023/12/03 03:52:49;;;;;;;22.13;10.63;;;;;;;-0.26;100.00;101879.59;5014092;28;20497;-86
2023/12/03 03:55:14;;;;;;;23.40;11.60;;;;;;;-0.26;100.00;101878.72;5012786;28;20476;-85
2023/12/03 03:57:40;;;;;;;26.20;12.03;;;;;;;-0.27;100.00;101882.09;5011956;28;20388;-85
2023/12/03 04:00:05;;;;;;;24.70;11.70;;;;;;;-0.27;100.00;101893.19;5009245;28;20018;-86
2023/12/03 04:02:31;;;;;;;26.77;11.53;;;;;;;-0.25;100.00;101890.69;4998833;28;20120;-87
2023/12/03 04:04:57;;;;;;;23.97;11.23;;;;;;;-0.27;100.00;101888.06;5014971;28;20025;-86
2023/12/03 04:07:23;;;;;;;24.70;11.53;;;;;;;-0.28;100.00;101896.56;5007614;28;20022;-86
2023/12/03 04:09:48;;;;;;;24.40;10.93;;;;;;;-0.31;100.00;101892.22;5006829;28;20036;-85
2023/12/03 04:12:14;;;;;;;23.27;11.43;;;;;;;-0.34;100.00;101896.31;5011702;28;20059;-86
2023/12/03 04:14:40;;;;;;;25.00;11.50;;;;;;;-0.37;100.00;101896.25;5008770;28;20373;-85
2023/12/03 04:17:06;;;;;;;23.53;11.27;;;;;;;-0.41;100.00;101900.34;5009254;28;20093;-86
2023/12/03 04:19:31;;;;;;;25.57;11.20;;;;;;;-0.46;100.00;101899.34;5011030;28;20030;-85
2023/12/03 04:21:56;;;;;;;24.83;11.53;;;;;;;-0.49;100.00;101896.66;4995677;28;20401;-86
2023/12/03 04:24:22;;;;;;;23.30;11.47;;;;;;;-0.52;100.00;101893.97;4988806;28;20589;-86
2023/12/03 04:26:47;;;;;;;24.53;11.20;;;;;;;-0.57;100.00;101892.94;5016347;28;20034;-85
2023/12/03 04:29:12;;;;;;;24.77;11.63;;;;;;;-0.59;100.00;101894.56;5039844;28;20038;-86
2023/12/03 04:31:38;;;;;;;24.00;10.97;;;;;;;-0.64;100.00;101894.38;5036535;28;20030;-86
2023/12/03 04:34:03;;;;;;;23.20;10.87;;;;;;;-0.67;100.00;101899.38;5019890;28;20026;-85
2023/12/03 04:36:28;;;;;;;24.63;11.17;;;;;;;-0.70;100.00;101896.72;5019730;28;20022;-85
2023/12/03 04:38:54;;;;;;;24.20;11.17;;;;;;;-0.73;100.00;101901.72;5005497;28;20472;-86
2023/12/03 04:41:20;;;;;;;30.27;11.93;;;;;;;-0.77;100.00;101910.97;4991288;28;20029;-86
2023/12/03 04:43:45;;;;;;;23.40;10.13;;;;;;;-0.80;100.00;101914.25;5008635;28;20026;-86
2023/12/03 04:46:11;;;;;;;21.97;10.17;;;;;;;-0.83;100.00;101906.47;5007925;28;20144;-86
2023/12/03 04:48:38;;;;;;;24.13;10.37;;;;;;;-0.85;100.00;101917.44;5011704;28;20037;-86
2023/12/03 04:51:03;;;;;;;23.83;10.67;;;;;;;-0.88;100.00;101917.31;5012330;28;20018;-86
2023/12/03 04:53:29;;;;;;;22.47;11.40;;;;;;;-0.89;100.00;101923.25;5015573;28;20350;-86
2023/12/03 04:55:55;;;;;;;25.20;11.27;;;;;;;-0.92;100.00;101931.66;5012517;28;20585;-85
2023/12/03 04:58:20;;;;;;;25.70;11.50;;;;;;;-0.97;100.00;101928.94;5011173;28;20508;-86
2023/12/03 05:00:46;;;;;;;24.93;11.50;;;;;;;-0.98;100.00;101927.19;5008603;28;20038;-86
2023/12/03 05:03:11;;;;;;;23.57;10.77;;;;;;;-1.01;100.00;101921.06;5010591;28;20094;-86
2023/12/03 05:05:36;;;;;;;30.53;12.53;;;;;;;-1.07;100.00;101917.50;5010382;28;20034;-86
2023/12/03 05:08:02;;;;;;;27.07;11.70;;;;;;;-1.08;100.00;101922.50;5013389;28;20030;-85
2023/12/03 05:10:29;;;;;;;26.87;12.17;;;;;;;-1.11;100.00;101922.41;5010510;28;20070;-85
2023/12/03 05:12:54;;;;;;;26.73;11.57;;;;;;;-1.16;100.00;101927.31;4997253;28;20084;-86
2023/12/03 05:15:20;;;;;;;29.20;12.83;;;;;;;-1.20;100.00;101924.59;5012458;28;20037;-86
2023/12/03 05:17:45;;;;;;;25.93;12.07;;;;;;;-1.23;100.00;101925.34;5010857;28;20022;-86
2023/12/03 05:20:11;;;;;;;28.20;12.60;;;;;;;-1.26;100.00;101926.06;5016980;28;20383;-86
2023/12/03 05:22:36;;;;;;;28.23;11.23;;;;;;;-1.29;100.00;101930.19;5017118;28;20033;-85
2023/12/03 05:25:02;;;;;;;27.80;12.30;;;;;;;-1.31;100.00;101936.91;5013765;28;20097;-86
2023/12/03 05:27:28;;;;;;;29.90;11.90;;;;;;;-1.35;100.00;101935.94;4999647;28;20034;-86
2023/12/03 05:29:53;;;;;;;27.37;12.07;;;;;;;-1.39;100.00;101939.16;5008730;28;20034;-85
2023/12/03 05:32:19;;;;;;;26.20;11.17;;;;;;;-1.43;100.00;101938.16;5007687;28;20418;-85
2023/12/03 05:34:45;;;;;;;27.07;11.50;;;;;;;-1.46;100.00;101938.03;5016579;28;20018;-86
2023/12/03 05:37:10;;;;;;;29.67;11.63;;;;;;;-1.48;100.00;101941.34;5008894;28;20076;-85
2023/12/03 05:39:41;;;;;;;28.57;11.57;;;;;;;-1.52;100.00;101942.88;5011327;28;20038;-85
2023/12/03 05:42:07;;;;;;;25.83;11.73;;;;;;;-1.54;100.00;101940.28;5008264;28;20492;-85
2023/12/03 05:44:32;;;;;;;28.67;12.10;;;;;;;-1.57;100.00;101950.34;5006431;28;20053;-86
2023/12/03 05:46:58;;;;;;;27.77;12.20;;;;;;;-1.57;100.00;101936.72;5011290;28;20037;-84
2023/12/03 05:49:23;;;;;;;28.80;12.33;;;;;;;-1.60;100.00;101944.25;5011503;28;20034;-85
2023/12/03 05:51:49;;;;;;;25.97;11.40;;;;;;;-1.61;100.00;101952.72;4993707;28;20046;-86
2023/12/03 05:54:15;;;;;;;27.77;11.97;;;;;;;-1.65;100.00;101945.72;5007932;28;20019;-86
2023/12/03 05:56:40;;;;;;;25.10;10.80;;;;;;;-1.69;100.00;101948.13;5021061;28;20036;-86
2023/12/03 05:59:06;;;;;;;28.07;11.80;;;;;;;-1.70;100.00;101954.03;5010380;28;20025;-86
2023/12/03 06:01:31;;;;;;;28.53;12.43;;;;;;;-1.72;100.00;101949.69;5014935;28;20051;-86
2023/12/03 06:03:57;;;;;;;29.67;12.20;;;;;;;-1.75;100.00;101953.00;4991483;28;20109;-85
2023/12/03 06:06:22;;;;;;;24.87;10.10;;;;;;;-1.75;100.00;101955.56;5018364;28;20409;-85
2023/12/03 06:08:48;;;;;;;26.00;10.50;;;;;;;-1.77;100.00;101956.25;5008378;28;20057;-86
2023/12/03 06:11:13;;;;;;;22.97;10.57;;;;;;;-1.79;100.00;101958.75;5012927;28;20029;-86
2023/12/03 06:13:39;;;;;;;27.10;10.73;;;;;;;-1.79;100.00;101957.91;5008444;28;20085;-85
2023/12/03 06:16:04;;;;;;;25.43;10.27;;;;;;;-1.80;100.00;101951.91;5011519;28;20116;-86
2023/12/03 06:18:30;;;;;;;27.83;11.37;;;;;;;-1.82;100.00;101961.19;5009736;28;20105;-85
2023/12/03 06:20:55;;;;;;;27.30;10.80;;;;;;;-1.84;100.00;101950.91;5008769;28;20061;-85
2023/12/03 06:23:20;;;;;;;27.53;10.73;;;;;;;-1.85;100.00;101966.13;4991609;28;20026;-85
2023/12/03 06:25:46;;;;;;;26.97;10.53;;;;;;;-1.86;100.00;101978.03;5000992;28;20021;-86
2023/12/03 06:28:11;;;;;;;24.70;10.13;;;;;;;-1.87;100.00;101970.31;5017781;28;20031;-85
2023/12/03 06:30:36;;;;;;;27.87;9.57;;;;;;;-1.89;100.00;101972.78;5008803;28;20041;-85
2023/12/03 06:33:02;;;;;;;25.63;10.57;;;;;;;-1.89;100.00;101977.03;5015665;28;20063;-85
2023/12/03 06:35:27;;;;;;;30.47;11.63;;;;;;;-1.91;100.00;101979.50;5013089;28;20037;-86
2023/12/03 06:37:53;;;;;;;24.97;10.23;;;;;;;-1.93;100.00;101970.91;5010580;28;20037;-85
2023/12/03 06:40:18;;;;;;;24.60;10.73;;;;;;;-1.94;100.00;101975.97;5009972;28;20033;-85
2023/12/03 06:42:43;;;;;;;26.47;10.57;;;;;;;-1.95;100.00;101979.31;5007822;28;20084;-85
2023/12/03 06:45:10;;;;;;;25.70;9.87;;;;;;;-1.95;100.00;101974.22;5013629;28;20056;-85
2023/12/03 06:47:35;;;;;;;31.87;11.37;;;;;;;-1.98;100.00;101978.38;5009643;28;20029;-86
2023/12/03 06:50:00;;;;;;;28.07;10.13;;;;;;;-1.98;100.00;101974.97;5012278;28;20033;-86
2023/12/03 06:52:26;;;;;;;27.03;11.00;;;;;;;-2.01;100.00;101962.91;5011118;28;20026;-85
2023/12/03 06:54:51;;;;;;;24.77;10.77;;;;;;;-2.00;100.00;101967.22;5007861;28;20532;-85
2023/12/03 06:57:16;;;;;;;29.80;11.90;;;;;;;-1.99;100.00;101966.41;5006708;28;20110;-85
2023/12/03 06:59:41;;;;;;;25.80;10.30;;;;;;;-1.96;100.00;101958.00;5010271;28;20100;-85
2023/12/03 07:02:07;;;;;;;25.57;10.43;;;;;;;-1.95;100.00;101961.47;4990542;28;20113;-86
2023/12/03 07:04:32;;;;;;;26.40;10.77;;;;;;;-1.94;100.00;101963.22;5009185;28;20433;-85
2023/12/03 07:06:59;;;;;;;25.23;10.47;;;;;;;-1.95;100.00;101957.22;4992716;28;20076;-85
2023/12/03 07:09:25;;;;;;;29.00;10.67;;;;;;;-1.95;100.00;101958.91;4989767;28;20473;-85
2023/12/03 07:11:51;;;;;;;25.57;10.37;;;;;;;-1.97;100.00;101963.94;4992671;28;20044;-86
2023/12/03 07:14:16;;;;;;;24.77;9.80;;;;;;;-1.98;100.00;101968.16;5007752;28;20027;-84
2023/12/03 07:16:42;;;;;;;27.03;10.20;;;;;;;-1.99;100.00;101966.41;4997342;28;20032;-85
2023/12/03 07:19:08;;;;;;;24.43;9.43;;;;;;;-2.02;100.00;101963.72;5013900;28;20264;-85
2023/12/03 07:21:33;;;;;;;25.13;10.13;;;;;;;-2.00;100.00;101968.91;5007710;28;20048;-86
2023/12/03 07:23:59;;;;;;;28.23;10.33;;;;;;;-2.00;100.00;101974.88;5015458;28;20030;-86
2023/12/03 07:26:24;;;;;;;26.47;11.07;;;;;;;-2.01;100.00;101978.22;5005850;28;20041;-86
2023/12/03 07:28:49;;;;;;;24.30;9.77;;;;;;;-1.99;100.00;101980.84;5008504;28;20400;-86
2023/12/03 07:31:15;;;;;;;23.10;9.70;;;;;;;-2.01;100.00;101980.78;5010203;28;20033;-85
2023/12/03 07:33:40;;;;;;;24.63;9.67;;;;;;;-2.00;100.00;101982.53;5005725;28;20104;-86
2023/12/03 07:36:07;;;;;;;27.10;10.80;;;;;;;-1.99;100.00;101985.97;5013187;28;20465;-85
2023/12/03 07:38:32;;;;;;;27.63;10.80;;;;;;;-2.00;100.00;101990.16;5010478;28;20097;-86
2023/12/03 07:40:57;;;;;;;26.07;10.63;;;;;;;-2.00;100.00;101990.16;5008698;28;20022;-85
2023/12/03 07:43:23;;;;;;;25.53;10.67;;;;;;;-1.99;100.00;101996.16;5005562;28;20034;-86
2023/12/03 07:45:48;;;;;;;25.33;10.17;;;;;;;-2.00;100.00;101990.16;4998109;28;20121;-85
2023/12/03 07:48:13;;;;;;;26.57;11.10;;;;;;;-1.99;100.00;101997.00;5012394;28;20033;-86
2023/12/03 07:50:39;;;;;;;24.87;10.50;;;;;;;-1.99;100.00;101996.16;5013188;28;20033;-86
2023/12/03 07:53:04;;;;;;;26.40;10.60;;;;;;;-1.98;100.00;101992.81;5000425;28;20157;-85
2023/12/03 07:55:29;;;;;;;25.23;10.43;;;;;;;-1.96;100.00;101990.31;5012371;28;20064;-85
2023/12/03 07:57:55;;;;;;;31.80;11.20;;;;;;;-1.97;100.00;101992.00;5007164;28;20099;-85
2023/12/03 08:00:21;;;;;;;27.57;10.70;;;;;;;-1.95;100.00;102002.25;5010483;28;20060;-86
2023/12/03 08:02:46;;;;;;;28.07;10.67;;;;;;;-1.98;100.00;101990.25;5014406;28;20152;-87
2023/12/03 08:05:12;;;;;;;25.53;10.43;;;;;;;-1.96;100.00;101987.75;5015135;28;20116;-86
2023/12/03 08:07:37;;;;;;;25.50;10.63;;;;;;;-1.98;100.00;101992.81;5015665;28;20034;-85
2023/12/03 08:10:03;;;;;;;27.73;10.13;;;;;;;-1.94;100.00;101998.91;5011173;28;20409;-86
2023/12/03 08:12:29;;;;;;;25.23;9.87;;;;;;;-1.94;100.00;101998.91;5008495;28;20042;-86
2023/12/03 08:14:54;;;;;;;25.10;10.33;;;;;;;-1.92;100.00;102008.38;5023651;28;20585;-86
2023/12/03 08:17:20;;;;;;;23.67;9.47;;;;;;;-1.89;100.00;102005.97;4990885;28;20041;-86
2023/12/03 08:19:45;;;;;;;28.30;11.10;;;;;;;-1.88;100.00;102000.06;5015963;28;20037;-85
2023/12/03 08:22:11;;;;;;;28.40;11.13;;;;;;;-1.86;99.96;102008.66;5012918;28;20038;-85
2023/12/03 08:24:36;;;;;;;27.20;10.23;;;;;;;-1.82;100.00;102004.53;5013458;28;20124;-88
2023/12/03 08:27:02;;;;;;;29.17;11.37;;;;;;;-1.79;100.00;102002.13;5010340;28;20048;-86
2023/12/03 08:29:27;;;;;;;27.33;11.10;;;;;;;-1.75;99.60;102009.13;5008116;28;20473;-85
2023/12/03 08:31:53;;;;;;;27.40;10.83;;;;;;;-1.71;100.00;102013.53;5009352;28;20366;-87
2023/12/03 08:34:18;;;;;;;28.10;11.57;;;;;;;-1.66;100.00;102011.19;5004504;28;20026;-85
2023/12/03 08:36:44;;;;;;;30.20;11.50;;;;;;;-1.61;99.87;102016.50;5010382;28;20033;-87
2023/12/03 08:39:09;;;;;;;26.47;10.97;;;;;;;-1.56;99.74;102015.03;4987386;28;20057;-87
2023/12/03 08:41:37;;;;;;;27.73;10.47;;;;;;;-1.51;100.00;102016.06;5010180;28;20386;-86
2023/12/03 08:44:04;;;;;;;26.03;10.47;;;;;;;-1.45;100.00;102015.50;4994003;28;20033;-86
2023/12/03 08:46:29;;;;;;;27.20;11.20;;;;;;;-1.43;99.83;102019.84;5007376;28;20499;-87
2023/12/03 08:48:55;;;;;;;26.60;10.63;;;;;;;-1.38;100.00;102028.59;5005225;28;20034;-87
2023/12/03 08:51:20;;;;;;;30.13;10.87;;;;;;;-1.35;99.16;102022.72;5006293;28;20083;-87
2023/12/03 08:53:47;;;;;;;27.40;11.60;;;;;;;-1.33;99.13;102030.44;5005046;28;20385;-87
2023/12/03 08:56:13;;;;;;;28.23;11.87;;;;;;;-1.32;99.16;102027.06;5005743;28;20022;-86
2023/12/03 08:58:40;;;;;;;27.10;10.30;;;;;;;-1.33;98.73;102031.31;4988418;28;20056;-86
2023/12/03 09:01:07;;;;;;;24.43;10.00;;;;;;;-1.30;98.62;102030.56;5011047;28;20029;-86
2023/12/03 09:03:33;;;;;;;26.67;10.40;;;;;;;-1.32;98.73;102027.06;4990578;28;20022;-86
2023/12/03 09:05:58;;;;;;;23.47;10.13;;;;;;;-1.30;98.67;102030.56;5004986;28;20030;-86
2023/12/03 09:08:23;;;;;;;25.77;10.53;;;;;;;-1.29;99.01;102027.22;5005711;28;20080;-87
2023/12/03 09:10:49;;;;;;;26.87;11.17;;;;;;;-1.27;98.35;102035.81;4988775;28;20505;-88
2023/12/03 09:13:14;;;;;;;26.57;10.23;;;;;;;-1.26;98.16;102035.84;4996495;28;20474;-88
2023/12/03 09:15:40;;;;;;;24.00;10.73;;;;;;;-1.23;98.24;102035.13;4996144;28;20030;-87
2023/12/03 09:18:05;;;;;;;27.60;11.30;;;;;;;-1.20;98.48;102037.81;5011665;28;20098;-87
2023/12/03 09:20:31;;;;;;;27.47;10.83;;;;;;;-1.17;98.53;102037.94;5010745;28;20034;-86
2023/12/03 09:22:56;;;;;;;26.50;11.10;;;;;;;-1.14;98.34;102038.06;5011853;28;20030;-85
2023/12/03 09:25:21;;;;;;;29.17;11.67;;;;;;;-1.11;97.89;102043.31;5011773;28;20021;-86
2023/12/03 09:27:47;;;;;;;25.57;10.63;;;;;;;-1.06;98.01;102040.94;5013182;28;20029;-86
2023/12/03 09:30:12;;;;;;;27.57;11.20;;;;;;;-1.03;97.40;102046.19;5013613;28;20034;-86
2023/12/03 09:32:38;;;;;;;28.03;12.27;;;;;;;-1.01;97.43;102043.69;5013243;28;20032;-88
2023/12/03 09:35:04;;;;;;;27.17;11.07;;;;;;;-0.97;97.49;102045.56;5011578;28;20021;-87
2023/12/03 09:37:29;;;;;;;29.43;11.73;;;;;;;-0.94;97.79;102046.53;5016042;28;20412;-87
2023/12/03 09:39:55;;;;;;;26.80;10.47;;;;;;;-0.91;97.42;102038.16;5012174;28;20066;-88
2023/12/03 09:42:25;;;;;;;27.50;10.60;;;;;;;-0.86;97.14;102039.22;5003990;28;20032;-87
2023/12/03 09:44:53;;;;;;;25.50;10.63;;;;;;;-0.83;96.12;102035.91;5014074;28;20045;-87
2023/12/03 09:47:22;;;;;;;25.03;9.83;;;;;;;-0.79;96.15;102030.97;5009654;28;20048;-87
2023/12/03 09:49:51;;;;;;;26.03;10.07;;;;;;;-0.73;96.29;102029.50;5009917;28;20113;-88
2023/12/03 09:52:19;;;;;;;28.43;10.73;;;;;;;-0.68;95.81;102027.97;5006139;28;20102;-87
2023/12/03 09:54:46;;;;;;;25.93;9.93;;;;;;;-0.65;95.88;102030.66;5007335;28;20044;-86
2023/12/03 09:57:14;;;;;;;26.90;11.27;;;;;;;-0.61;95.90;102027.41;5008442;28;20121;-87
2023/12/03 09:59:47;;;;;;;29.30;11.40;;;;;;;-0.56;95.43;102037.81;5013815;28;20096;-88
2023/12/03 10:02:13;;;;;;;24.70;10.20;;;;;;;-0.53;95.05;102035.38;4992091;28;20052;-87
2023/12/03 10:04:39;;;;;;;26.53;11.10;;;;;;;-0.50;95.13;102030.41;5011866;28;20108;-87
2023/12/03 10:07:07;;;;;;;27.30;10.73;;;;;;;-0.46;94.86;102035.69;5004881;28;20032;-88
2023/12/03 10:09:33;;;;;;;25.37;10.80;;;;;;;-0.43;94.54;102039.19;5008363;28;20505;-87
2023/12/03 10:12:04;;;;;;;25.40;10.90;;;;;;;-0.40;93.91;102029.06;5011563;28;20029;-88
2023/12/03 10:14:30;;;;;;;25.30;10.18;;;;;;;-0.40;94.68;102021.41;5003445;28;20121;-88
2023/12/03 10:16:55;;;;;;;26.47;11.00;;;;;;;-0.39;93.77;102020.59;5008967;28;20026;-88
2023/12/03 10:19:24;;;;;;;25.17;10.07;;;;;;;-0.40;93.64;102023.97;5008455;28;20029;-88
2023/12/03 10:21:51;;;;;;;25.87;10.63;;;;;;;-0.40;93.50;102009.47;4999674;28;20030;-88
2023/12/03 10:24:17;;;;;;;22.33;9.70;;;;;;;-0.37;93.64;102017.28;5008718;28;20018;-87
2023/12/03 10:26:51;;;;;;;24.77;9.83;;;;;;;-0.33;93.47;102011.47;5005744;28;20026;-87
2023/12/03 10:29:19;;;;;;;26.53;11.57;;;;;;;-0.34;93.02;102006.28;5012390;28;20021;-87
2023/12/03 10:31:51;;;;;;;29.77;11.63;;;;;;;-0.30;92.91;102008.13;4996447;28;20116;-88
2023/12/03 10:34:18;;;;;;;26.30;11.17;;;;;;;-0.26;92.91;102004.03;5003027;28;20028;-89
2023/12/03 10:36:43;;;;;;;25.17;11.10;;;;;;;-0.22;91.78;102000.75;5011259;28;20019;-86
2023/12/03 10:39:09;;;;;;;26.27;11.40;;;;;;;-0.17;92.33;101996.69;5012844;28;20022;-87
2023/12/03 10:41:35;;;;;;;26.63;10.87;;;;;;;-0.16;91.97;101998.44;5011778;28;20473;-87
2023/12/03 10:44:02;;;;;;;27.23;10.97;;;;;;;-0.12;91.55;101994.31;5013528;28;20036;-87
2023/12/03 10:46:27;;;;;;;22.67;9.27;;;;;;;-0.09;91.70;101992.75;5014463;28;20029;-89
2023/12/03 10:48:53;;;;;;;26.50;10.63;;;;;;;-0.08;91.49;101991.06;4996809;28;20041;-87
2023/12/03 10:51:18;;;;;;;22.13;9.77;;;;;;;-0.06;91.04;101994.53;4997184;28;20378;-87
2023/12/03 10:53:45;;;;;;;23.30;10.33;;;;;;;-0.06;90.93;101984.31;5004397;28;20025;-85
2023/12/03 10:56:10;;;;;;;24.50;10.03;;;;;;;0.00;90.58;101984.53;5008855;28;20037;-87
2023/12/03 10:58:37;;;;;;;24.00;10.53;;;;;;;-0.01;90.36;101983.66;5006353;28;20038;-87